TRA31AP EHAM-LOWW
Flight info
| Callsign | TRA31AP |
|---|---|
| Flight time | 1h 26m |
| Altitude | 37000 |
| Route | EDUPO Z739 MISGO DCT TIVUN DCT ESAMA DCT OSBIT DCT KOMIB L984 SULUS Z650 VEMUT DCT BUDEX |
| Aircraft | A320/M-SDE3FGHIRWY/LB1 |
Departure
| Time | 2026-05-06 18:19 |
|---|---|
| Airport | Amsterdam Airport Schiphol (EHAM) |
Arrival
| Time | 2026-05-06 19:45 |
|---|---|
| Airport | Vienna International Airport (LOWW) |
| Time | Latitude | Longitude | Altitude | Speed | Heading |
|---|---|---|---|---|---|
| 2026-05-06 17:33 | 52.31003 | 4.77303 | -2 ft | 0 kts | 184° |
| 2026-05-06 18:06 | 52.31016 | 4.77304 | -2 ft | 4 kts | 180° |
| 2026-05-06 18:06 | 52.31043 | 4.77302 | -2 ft | 4 kts | 169° |
| 2026-05-06 18:06 | 52.31068 | 4.77288 | -2 ft | 4 kts | 140° |
| 2026-05-06 18:07 | 52.31078 | 4.77263 | -2 ft | 1 kts | 90° |
| 2026-05-06 18:07 | 52.31078 | 4.77256 | -2 ft | 0 kts | 90° |
| 2026-05-06 18:09 | 52.31078 | 4.77257 | -2 ft | 1 kts | 90° |
| 2026-05-06 18:10 | 52.31078 | 4.77279 | -2 ft | 3 kts | 90° |
| 2026-05-06 18:10 | 52.31078 | 4.77328 | -2 ft | 5 kts | 90° |
| 2026-05-06 18:10 | 52.31077 | 4.77403 | -2 ft | 8 kts | 90° |
| 2026-05-06 18:10 | 52.31045 | 4.77483 | -2 ft | 10 kts | 158° |
| 2026-05-06 18:11 | 52.30972 | 4.77480 | -2 ft | 12 kts | 183° |
| 2026-05-06 18:11 | 52.30914 | 4.77475 | -2 ft | 13 kts | 183° |
| 2026-05-06 18:11 | 52.30786 | 4.77463 | -2 ft | 15 kts | 183° |
| 2026-05-06 18:11 | 52.30695 | 4.77456 | -2 ft | 13 kts | 182° |
| 2026-05-06 18:12 | 52.30622 | 4.77374 | -2 ft | 14 kts | 236° |
| 2026-05-06 18:12 | 52.30568 | 4.77230 | -3 ft | 16 kts | 238° |
| 2026-05-06 18:12 | 52.30506 | 4.77071 | -3 ft | 17 kts | 237° |
| 2026-05-06 18:12 | 52.30438 | 4.76894 | -3 ft | 19 kts | 238° |
| 2026-05-06 18:13 | 52.30364 | 4.76700 | -3 ft | 21 kts | 238° |
| 2026-05-06 18:13 | 52.30283 | 4.76490 | -2 ft | 23 kts | 237° |
| 2026-05-06 18:13 | 52.30195 | 4.76262 | -2 ft | 25 kts | 238° |
| 2026-05-06 18:13 | 52.30100 | 4.76014 | -3 ft | 27 kts | 238° |
| 2026-05-06 18:14 | 52.29998 | 4.75748 | -3 ft | 27 kts | 238° |
| 2026-05-06 18:14 | 52.29912 | 4.75522 | -2 ft | 24 kts | 237° |
| 2026-05-06 18:14 | 52.29842 | 4.75331 | -2 ft | 17 kts | 243° |
| 2026-05-06 18:14 | 52.29863 | 4.75154 | -2 ft | 17 kts | 309° |
| 2026-05-06 18:15 | 52.29949 | 4.74995 | -3 ft | 20 kts | 312° |
| 2026-05-06 18:15 | 52.30044 | 4.74819 | -2 ft | 22 kts | 311° |
| 2026-05-06 18:15 | 52.30141 | 4.74638 | 4 ft | 20 kts | 310° |
| 2026-05-06 18:15 | 52.30219 | 4.74494 | 8 ft | 15 kts | 312° |
| 2026-05-06 18:16 | 52.30264 | 4.74412 | 9 ft | 14 kts | 312° |
| 2026-05-06 18:16 | 52.30344 | 4.74266 | -2 ft | 19 kts | 309° |
| 2026-05-06 18:16 | 52.30370 | 4.74138 | -2 ft | 13 kts | 256° |
| 2026-05-06 18:16 | 52.30311 | 4.74025 | -2 ft | 14 kts | 215° |
| 2026-05-06 18:17 | 52.30238 | 4.73930 | -3 ft | 12 kts | 221° |
| 2026-05-06 18:17 | 52.30200 | 4.73868 | -3 ft | 8 kts | 238° |
| 2026-05-06 18:17 | 52.30196 | 4.73779 | -3 ft | 6 kts | 285° |
| 2026-05-06 18:17 | 52.30238 | 4.73738 | -4 ft | 9 kts | 354° |
| 2026-05-06 18:18 | 52.30345 | 4.73746 | -5 ft | 33 kts | 3° |
| 2026-05-06 18:18 | 52.30803 | 4.73790 | -1 ft | 96 kts | 3° |
| 2026-05-06 18:18 | 52.31638 | 4.73867 | -3 ft | 143 kts | 3° |
| 2026-05-06 18:18 | 52.32688 | 4.73932 | 372 ft | 148 kts | 6° |
| 2026-05-06 18:19 | 52.33698 | 4.74247 | 921 ft | 150 kts | 24° |
| 2026-05-06 18:19 | 52.34677 | 4.74900 | 1446 ft | 158 kts | 22° |
| 2026-05-06 18:19 | 52.35770 | 4.75591 | 1707 ft | 178 kts | 22° |
| 2026-05-06 18:19 | 52.37003 | 4.76368 | 1916 ft | 204 kts | 23° |
| 2026-05-06 18:20 | 52.38302 | 4.77583 | 2242 ft | 228 kts | 42° |
| 2026-05-06 18:20 | 52.39457 | 4.79480 | 2912 ft | 238 kts | 47° |
| 2026-05-06 18:20 | 52.40608 | 4.81483 | 3776 ft | 243 kts | 47° |
| 2026-05-06 18:20 | 52.41756 | 4.83541 | 4661 ft | 248 kts | 52° |
| 2026-05-06 18:21 | 52.42474 | 4.86095 | 5389 ft | 257 kts | 79° |
| 2026-05-06 18:21 | 52.42544 | 4.89014 | 6377 ft | 256 kts | 87° |
| 2026-05-06 18:21 | 52.42514 | 4.91952 | 7185 ft | 262 kts | 89° |
| 2026-05-06 18:21 | 52.42418 | 4.94998 | 7804 ft | 274 kts | 97° |
| 2026-05-06 18:22 | 52.41840 | 4.98022 | 8493 ft | 284 kts | 115° |
| 2026-05-06 18:22 | 52.40697 | 5.00683 | 9267 ft | 290 kts | 133° |
| 2026-05-06 18:22 | 52.39092 | 5.02795 | 9855 ft | 302 kts | 144° |
| 2026-05-06 18:22 | 52.37329 | 5.04787 | 10275 ft | 318 kts | 145° |
| 2026-05-06 18:23 | 52.35439 | 5.06924 | 10409 ft | 341 kts | 145° |
| 2026-05-06 18:23 | 52.33498 | 5.09265 | 10833 ft | 352 kts | 138° |
| 2026-05-06 18:23 | 52.31788 | 5.12208 | 11332 ft | 361 kts | 130° |
| 2026-05-06 18:23 | 52.30119 | 5.15304 | 11991 ft | 363 kts | 131° |
| 2026-05-06 18:24 | 52.28429 | 5.18395 | 12681 ft | 365 kts | 132° |
| 2026-05-06 18:24 | 52.26727 | 5.21493 | 13399 ft | 367 kts | 132° |
| 2026-05-06 18:24 | 52.25020 | 5.24597 | 14055 ft | 369 kts | 132° |
| 2026-05-06 18:24 | 52.23433 | 5.27945 | 14562 ft | 376 kts | 126° |
| 2026-05-06 18:25 | 52.21942 | 5.31391 | 15143 ft | 378 kts | 126° |
| 2026-05-06 18:25 | 52.20416 | 5.34916 | 15674 ft | 383 kts | 126° |
| 2026-05-06 18:25 | 52.18875 | 5.38464 | 16265 ft | 384 kts | 126° |
| 2026-05-06 18:25 | 52.17321 | 5.42038 | 16850 ft | 387 kts | 126° |
| 2026-05-06 18:26 | 52.15758 | 5.45627 | 17481 ft | 389 kts | 126° |
| 2026-05-06 18:26 | 52.14186 | 5.49233 | 18092 ft | 392 kts | 125° |
| 2026-05-06 18:26 | 52.12602 | 5.52858 | 18623 ft | 395 kts | 125° |
| 2026-05-06 18:26 | 52.11000 | 5.56516 | 19164 ft | 398 kts | 126° |
| 2026-05-06 18:27 | 52.09388 | 5.60184 | 19713 ft | 401 kts | 126° |
| 2026-05-06 18:27 | 52.07759 | 5.63883 | 20268 ft | 403 kts | 126° |
| 2026-05-06 18:27 | 52.06104 | 5.67580 | 20801 ft | 406 kts | 129° |
| 2026-05-06 18:27 | 52.04257 | 5.71076 | 21317 ft | 408 kts | 132° |
| 2026-05-06 18:28 | 52.02378 | 5.74581 | 21823 ft | 411 kts | 132° |
| 2026-05-06 18:28 | 52.00495 | 5.78088 | 22317 ft | 414 kts | 132° |
| 2026-05-06 18:28 | 51.98599 | 5.81621 | 22802 ft | 416 kts | 132° |
| 2026-05-06 18:28 | 51.96693 | 5.85175 | 23280 ft | 419 kts | 132° |
| 2026-05-06 18:29 | 51.94776 | 5.88755 | 23698 ft | 422 kts | 132° |
| 2026-05-06 18:29 | 51.92873 | 5.92312 | 24063 ft | 424 kts | 132° |
| 2026-05-06 18:29 | 51.90938 | 5.95928 | 24455 ft | 426 kts | 132° |
| 2026-05-06 18:29 | 51.88985 | 5.99570 | 24842 ft | 428 kts | 133° |
| 2026-05-06 18:30 | 51.87030 | 6.03205 | 25232 ft | 429 kts | 133° |
| 2026-05-06 18:30 | 51.85066 | 6.06845 | 25614 ft | 430 kts | 133° |
| 2026-05-06 18:30 | 51.83091 | 6.10492 | 25989 ft | 432 kts | 133° |
| 2026-05-06 18:30 | 51.81103 | 6.14148 | 26366 ft | 433 kts | 133° |
| 2026-05-06 18:31 | 51.79101 | 6.17813 | 26734 ft | 435 kts | 133° |
| 2026-05-06 18:31 | 51.77096 | 6.21475 | 27101 ft | 437 kts | 133° |
| 2026-05-06 18:31 | 51.75077 | 6.25158 | 27467 ft | 438 kts | 133° |
| 2026-05-06 18:31 | 51.73051 | 6.28849 | 27840 ft | 440 kts | 133° |
| 2026-05-06 18:32 | 51.71018 | 6.32551 | 28167 ft | 442 kts | 133° |
| 2026-05-06 18:32 | 51.68968 | 6.36280 | 28452 ft | 445 kts | 133° |
| 2026-05-06 18:32 | 51.66908 | 6.40021 | 28753 ft | 448 kts | 133° |
| 2026-05-06 18:32 | 51.64885 | 6.43757 | 29112 ft | 449 kts | 131° |
| 2026-05-06 18:33 | 51.62878 | 6.47586 | 29584 ft | 447 kts | 131° |
| 2026-05-06 18:33 | 51.60879 | 6.51486 | 30111 ft | 444 kts | 130° |
| 2026-05-06 18:33 | 51.58956 | 6.55273 | 30562 ft | 442 kts | 130° |
| 2026-05-06 18:33 | 51.57012 | 6.59090 | 30955 ft | 441 kts | 130° |
| 2026-05-06 18:34 | 51.55063 | 6.62881 | 31356 ft | 440 kts | 131° |
| 2026-05-06 18:34 | 51.53106 | 6.66660 | 31755 ft | 439 kts | 131° |
| 2026-05-06 18:34 | 51.51148 | 6.70430 | 32151 ft | 439 kts | 131° |
| 2026-05-06 18:34 | 51.49194 | 6.74180 | 32537 ft | 438 kts | 131° |
| 2026-05-06 18:35 | 51.47231 | 6.77943 | 32918 ft | 438 kts | 132° |
| 2026-05-06 18:35 | 51.45273 | 6.81692 | 33309 ft | 438 kts | 132° |
| 2026-05-06 18:35 | 51.43317 | 6.85427 | 33712 ft | 437 kts | 132° |
| 2026-05-06 18:35 | 51.41361 | 6.89157 | 34067 ft | 437 kts | 132° |
| 2026-05-06 18:36 | 51.39404 | 6.92890 | 34374 ft | 437 kts | 132° |
| 2026-05-06 18:36 | 51.37452 | 6.96605 | 34653 ft | 437 kts | 132° |
| 2026-05-06 18:36 | 51.35491 | 7.00333 | 34841 ft | 438 kts | 132° |
| 2026-05-06 18:36 | 51.33531 | 7.04056 | 34895 ft | 438 kts | 132° |
| 2026-05-06 18:37 | 51.29633 | 7.11447 | 34887 ft | 437 kts | 132° |
| 2026-05-06 18:37 | 51.25710 | 7.18856 | 34881 ft | 437 kts | 133° |
| 2026-05-06 18:38 | 51.23737 | 7.22556 | 35001 ft | 438 kts | 133° |
| 2026-05-06 18:38 | 51.21762 | 7.26260 | 35305 ft | 437 kts | 133° |
| 2026-05-06 18:38 | 51.19792 | 7.29954 | 35579 ft | 437 kts | 133° |
| 2026-05-06 18:38 | 51.17826 | 7.33640 | 35839 ft | 437 kts | 133° |
| 2026-05-06 18:39 | 51.15849 | 7.37349 | 36091 ft | 438 kts | 133° |
| 2026-05-06 18:39 | 51.13878 | 7.41045 | 36334 ft | 438 kts | 133° |
| 2026-05-06 18:39 | 51.11903 | 7.44743 | 36561 ft | 438 kts | 133° |
| 2026-05-06 18:40 | 51.07938 | 7.52141 | 36861 ft | 442 kts | 133° |
| 2026-05-06 18:40 | 51.03898 | 7.59640 | 36851 ft | 449 kts | 133° |
| 2026-05-06 18:41 | 50.99857 | 7.67122 | 36861 ft | 449 kts | 133° |
| 2026-05-06 18:41 | 50.95792 | 7.74630 | 36862 ft | 449 kts | 134° |
| 2026-05-06 18:42 | 50.92279 | 7.82838 | 36854 ft | 454 kts | 121° |
| 2026-05-06 18:42 | 50.89298 | 7.91677 | 36850 ft | 454 kts | 121° |
| 2026-05-06 18:43 | 50.86334 | 8.00527 | 36843 ft | 455 kts | 121° |
| 2026-05-06 18:43 | 50.83358 | 8.09358 | 36834 ft | 455 kts | 121° |
| 2026-05-06 18:44 | 50.80358 | 8.18178 | 36841 ft | 455 kts | 121° |
| 2026-05-06 18:44 | 50.77356 | 8.26989 | 36845 ft | 455 kts | 121° |
| 2026-05-06 18:45 | 50.74350 | 8.35789 | 36844 ft | 455 kts | 121° |
| 2026-05-06 18:45 | 50.71339 | 8.44573 | 36825 ft | 455 kts | 122° |
| 2026-05-06 18:46 | 50.68316 | 8.53347 | 36826 ft | 455 kts | 122° |
| 2026-05-06 18:46 | 50.65304 | 8.62051 | 36819 ft | 455 kts | 122° |
| 2026-05-06 18:47 | 50.62271 | 8.70801 | 36824 ft | 455 kts | 122° |
| 2026-05-06 18:47 | 50.59230 | 8.79544 | 36821 ft | 455 kts | 122° |
| 2026-05-06 18:48 | 50.56182 | 8.88264 | 36821 ft | 455 kts | 122° |
| 2026-05-06 18:48 | 50.53126 | 8.96983 | 36811 ft | 455 kts | 122° |
| 2026-05-06 18:49 | 50.50619 | 9.06132 | 36830 ft | 460 kts | 110° |
| 2026-05-06 18:49 | 50.48797 | 9.15775 | 36839 ft | 460 kts | 110° |
| 2026-05-06 18:50 | 50.46997 | 9.25410 | 36832 ft | 460 kts | 110° |
| 2026-05-06 18:50 | 50.45185 | 9.35037 | 36816 ft | 460 kts | 110° |
| 2026-05-06 18:51 | 50.43354 | 9.44642 | 36822 ft | 459 kts | 110° |
| 2026-05-06 18:51 | 50.41513 | 9.54236 | 36828 ft | 459 kts | 110° |
| 2026-05-06 18:52 | 50.39679 | 9.63750 | 36827 ft | 459 kts | 111° |
| 2026-05-06 18:52 | 50.37825 | 9.73308 | 36823 ft | 459 kts | 111° |
| 2026-05-06 18:53 | 50.35967 | 9.82872 | 36819 ft | 459 kts | 111° |
| 2026-05-06 18:53 | 50.34109 | 9.92426 | 36825 ft | 458 kts | 111° |
| 2026-05-06 18:54 | 50.32239 | 10.01945 | 36822 ft | 457 kts | 111° |
| 2026-05-06 18:54 | 50.30359 | 10.11446 | 36818 ft | 457 kts | 111° |
| 2026-05-06 18:55 | 50.28478 | 10.20924 | 36799 ft | 457 kts | 111° |
| 2026-05-06 18:55 | 50.26589 | 10.30406 | 36800 ft | 457 kts | 111° |
| 2026-05-06 18:56 | 50.24688 | 10.39908 | 36806 ft | 458 kts | 111° |
| 2026-05-06 18:56 | 50.22773 | 10.49392 | 36810 ft | 458 kts | 112° |
| 2026-05-06 18:57 | 50.20852 | 10.58876 | 36815 ft | 458 kts | 112° |
| 2026-05-06 18:57 | 50.18930 | 10.68357 | 36802 ft | 458 kts | 112° |
| 2026-05-06 18:58 | 50.16998 | 10.77839 | 36813 ft | 459 kts | 112° |
| 2026-05-06 18:58 | 50.15064 | 10.87309 | 36812 ft | 459 kts | 112° |
| 2026-05-06 18:59 | 50.13107 | 10.96786 | 36813 ft | 458 kts | 112° |
| 2026-05-06 18:59 | 50.11154 | 11.06188 | 36797 ft | 459 kts | 112° |
| 2026-05-06 19:00 | 50.09184 | 11.15637 | 36796 ft | 459 kts | 112° |
| 2026-05-06 19:00 | 50.07210 | 11.25093 | 36813 ft | 459 kts | 112° |
| 2026-05-06 19:01 | 50.05229 | 11.34532 | 36820 ft | 459 kts | 112° |
| 2026-05-06 19:01 | 50.03230 | 11.43972 | 36825 ft | 459 kts | 113° |
| 2026-05-06 19:02 | 50.01557 | 11.51875 | 36808 ft | 459 kts | 113° |
| 2026-05-06 19:02 | 49.99227 | 11.62828 | 36819 ft | 459 kts | 113° |
| 2026-05-06 19:03 | 49.97213 | 11.72229 | 36819 ft | 459 kts | 113° |
| 2026-05-06 19:03 | 49.95534 | 11.80032 | 36821 ft | 458 kts | 113° |
| 2026-05-06 19:04 | 49.93509 | 11.89423 | 36796 ft | 458 kts | 114° |
| 2026-05-06 19:04 | 49.91475 | 11.98796 | 36805 ft | 458 kts | 114° |
| 2026-05-06 19:05 | 49.89440 | 12.08158 | 36812 ft | 458 kts | 114° |
| 2026-05-06 19:05 | 49.87400 | 12.17507 | 36816 ft | 458 kts | 114° |
| 2026-05-06 19:06 | 49.85345 | 12.26850 | 36812 ft | 457 kts | 114° |
| 2026-05-06 19:06 | 49.83281 | 12.36178 | 36793 ft | 457 kts | 114° |
| 2026-05-06 19:07 | 49.81094 | 12.45385 | 36789 ft | 452 kts | 122° |
| 2026-05-06 19:07 | 49.77819 | 12.53456 | 36792 ft | 444 kts | 130° |
| 2026-05-06 19:08 | 49.74304 | 12.61323 | 36791 ft | 445 kts | 130° |
| 2026-05-06 19:08 | 49.70784 | 12.69195 | 36780 ft | 445 kts | 130° |
| 2026-05-06 19:09 | 49.67258 | 12.77061 | 36754 ft | 446 kts | 130° |
| 2026-05-06 19:09 | 49.63713 | 12.84937 | 36762 ft | 447 kts | 130° |
| 2026-05-06 19:10 | 49.60156 | 12.92819 | 36771 ft | 448 kts | 130° |
| 2026-05-06 19:10 | 49.56588 | 13.00694 | 36780 ft | 448 kts | 130° |
| 2026-05-06 19:11 | 49.53013 | 13.08572 | 36785 ft | 449 kts | 130° |
| 2026-05-06 19:11 | 49.49434 | 13.16446 | 36796 ft | 449 kts | 130° |
| 2026-05-06 19:12 | 49.45848 | 13.24295 | 36792 ft | 448 kts | 130° |
| 2026-05-06 19:12 | 49.42263 | 13.32125 | 36779 ft | 448 kts | 130° |
| 2026-05-06 19:13 | 49.38693 | 13.39902 | 36779 ft | 448 kts | 130° |
| 2026-05-06 19:13 | 49.35092 | 13.47722 | 36746 ft | 449 kts | 131° |
| 2026-05-06 19:14 | 49.31483 | 13.55540 | 36763 ft | 449 kts | 131° |
| 2026-05-06 19:14 | 49.27867 | 13.63336 | 36764 ft | 449 kts | 131° |
| 2026-05-06 19:15 | 49.24238 | 13.71122 | 36770 ft | 449 kts | 131° |
| 2026-05-06 19:15 | 49.20612 | 13.78903 | 36767 ft | 449 kts | 131° |
| 2026-05-06 19:16 | 49.16986 | 13.86671 | 36752 ft | 449 kts | 131° |
| 2026-05-06 19:16 | 49.13355 | 13.94429 | 36754 ft | 449 kts | 131° |
| 2026-05-06 19:16 | 49.11532 | 13.98314 | 36558 ft | 450 kts | 132° |
| 2026-05-06 19:17 | 49.09709 | 14.02188 | 36165 ft | 449 kts | 132° |
| 2026-05-06 19:17 | 49.07889 | 14.06054 | 35782 ft | 448 kts | 132° |
| 2026-05-06 19:17 | 49.06069 | 14.09910 | 35400 ft | 448 kts | 133° |
| 2026-05-06 19:17 | 49.04243 | 14.13767 | 35023 ft | 449 kts | 133° |
| 2026-05-06 19:18 | 49.02414 | 14.17619 | 34661 ft | 449 kts | 133° |
| 2026-05-06 19:18 | 49.00561 | 14.21457 | 34137 ft | 449 kts | 134° |
| 2026-05-06 19:18 | 48.98718 | 14.25199 | 33635 ft | 448 kts | 135° |
| 2026-05-06 19:18 | 48.96832 | 14.28971 | 33048 ft | 448 kts | 135° |
| 2026-05-06 19:19 | 48.94937 | 14.32736 | 32499 ft | 449 kts | 135° |
| 2026-05-06 19:19 | 48.93036 | 14.36512 | 31940 ft | 451 kts | 135° |
| 2026-05-06 19:19 | 48.91125 | 14.40312 | 31402 ft | 452 kts | 135° |
| 2026-05-06 19:19 | 48.89224 | 14.44103 | 30860 ft | 450 kts | 134° |
| 2026-05-06 19:20 | 48.87336 | 14.47884 | 30349 ft | 447 kts | 134° |
| 2026-05-06 19:20 | 48.85464 | 14.51640 | 29842 ft | 445 kts | 134° |
| 2026-05-06 19:20 | 48.83605 | 14.55368 | 29248 ft | 442 kts | 134° |
| 2026-05-06 19:20 | 48.81748 | 14.59077 | 28623 ft | 438 kts | 134° |
| 2026-05-06 19:21 | 48.79908 | 14.62734 | 28046 ft | 435 kts | 134° |
| 2026-05-06 19:21 | 48.78079 | 14.66360 | 27486 ft | 431 kts | 134° |
| 2026-05-06 19:21 | 48.76268 | 14.69951 | 26935 ft | 427 kts | 134° |
| 2026-05-06 19:21 | 48.74470 | 14.73509 | 26389 ft | 425 kts | 134° |
| 2026-05-06 19:22 | 48.72612 | 14.77154 | 25827 ft | 449 kts | 134° |
| 2026-05-06 19:22 | 48.70668 | 14.80950 | 25252 ft | 458 kts | 134° |
| 2026-05-06 19:22 | 48.68723 | 14.84774 | 24697 ft | 458 kts | 133° |
| 2026-05-06 19:22 | 48.66820 | 14.88536 | 24153 ft | 454 kts | 133° |
| 2026-05-06 19:23 | 48.64909 | 14.92316 | 23617 ft | 450 kts | 133° |
| 2026-05-06 19:23 | 48.62991 | 14.96100 | 23009 ft | 445 kts | 133° |
| 2026-05-06 19:23 | 48.61119 | 14.99788 | 22396 ft | 440 kts | 133° |
| 2026-05-06 19:23 | 48.59409 | 15.03629 | 21769 ft | 443 kts | 123° |
| 2026-05-06 19:24 | 48.58241 | 15.07941 | 21215 ft | 448 kts | 111° |
| 2026-05-06 19:24 | 48.57460 | 15.12429 | 20688 ft | 446 kts | 109° |
| 2026-05-06 19:24 | 48.56677 | 15.17013 | 20127 ft | 443 kts | 109° |
| 2026-05-06 19:24 | 48.55922 | 15.21440 | 19590 ft | 440 kts | 109° |
| 2026-05-06 19:25 | 48.55148 | 15.25950 | 19052 ft | 437 kts | 109° |
| 2026-05-06 19:25 | 48.54383 | 15.30369 | 18524 ft | 434 kts | 109° |
| 2026-05-06 19:25 | 48.53618 | 15.34753 | 17982 ft | 431 kts | 109° |
| 2026-05-06 19:25 | 48.52857 | 15.39105 | 17396 ft | 427 kts | 109° |
| 2026-05-06 19:26 | 48.52139 | 15.43371 | 17017 ft | 425 kts | 105° |
| 2026-05-06 19:26 | 48.51794 | 15.47802 | 16725 ft | 427 kts | 98° |
| 2026-05-06 19:26 | 48.51546 | 15.52253 | 16363 ft | 424 kts | 98° |
| 2026-05-06 19:26 | 48.51298 | 15.56681 | 15987 ft | 422 kts | 98° |
| 2026-05-06 19:27 | 48.51048 | 15.61070 | 15608 ft | 419 kts | 98° |
| 2026-05-06 19:27 | 48.50798 | 15.65435 | 15234 ft | 416 kts | 98° |
| 2026-05-06 19:27 | 48.50547 | 15.69765 | 14866 ft | 413 kts | 98° |
| 2026-05-06 19:27 | 48.50296 | 15.74068 | 14501 ft | 410 kts | 97° |
| 2026-05-06 19:28 | 48.50045 | 15.78331 | 14135 ft | 407 kts | 98° |
| 2026-05-06 19:28 | 48.49798 | 15.82547 | 13807 ft | 398 kts | 98° |
| 2026-05-06 19:28 | 48.49557 | 15.86648 | 13714 ft | 390 kts | 98° |
| 2026-05-06 19:28 | 48.49316 | 15.90722 | 13733 ft | 390 kts | 98° |
| 2026-05-06 19:29 | 48.49071 | 15.94799 | 13738 ft | 390 kts | 98° |
| 2026-05-06 19:29 | 48.48824 | 15.98861 | 13674 ft | 388 kts | 98° |
| 2026-05-06 19:29 | 48.48540 | 16.02883 | 13215 ft | 384 kts | 103° |
| 2026-05-06 19:29 | 48.47717 | 16.06660 | 12798 ft | 377 kts | 120° |
| 2026-05-06 19:30 | 48.46268 | 16.09856 | 12389 ft | 363 kts | 136° |
| 2026-05-06 19:30 | 48.44377 | 16.12239 | 11979 ft | 350 kts | 151° |
| 2026-05-06 19:30 | 48.42227 | 16.13826 | 11574 ft | 340 kts | 159° |
| 2026-05-06 19:30 | 48.40080 | 16.15234 | 11169 ft | 334 kts | 159° |
| 2026-05-06 19:31 | 48.37966 | 16.16625 | 10768 ft | 328 kts | 159° |
| 2026-05-06 19:31 | 48.35889 | 16.17998 | 10378 ft | 323 kts | 159° |
| 2026-05-06 19:31 | 48.32018 | 16.21246 | 9712 ft | 320 kts | 136° |
| 2026-05-06 19:32 | 48.30864 | 16.24054 | 9586 ft | 316 kts | 112° |
| 2026-05-06 19:32 | 48.30559 | 16.27247 | 9451 ft | 304 kts | 87° |
| 2026-05-06 19:32 | 48.31047 | 16.30264 | 9095 ft | 295 kts | 66° |
| 2026-05-06 19:32 | 48.32209 | 16.32757 | 8569 ft | 294 kts | 41° |
| 2026-05-06 19:33 | 48.33943 | 16.34300 | 8263 ft | 288 kts | 15° |
| 2026-05-06 19:33 | 48.35870 | 16.34632 | 7967 ft | 280 kts | 349° |
| 2026-05-06 19:33 | 48.37752 | 16.33966 | 7613 ft | 278 kts | 340° |
| 2026-05-06 19:33 | 48.39607 | 16.33174 | 7212 ft | 277 kts | 340° |
| 2026-05-06 19:34 | 48.41451 | 16.32377 | 6919 ft | 275 kts | 340° |
| 2026-05-06 19:34 | 48.43285 | 16.31584 | 6647 ft | 273 kts | 341° |
| 2026-05-06 19:34 | 48.45089 | 16.30806 | 6496 ft | 266 kts | 340° |
| 2026-05-06 19:34 | 48.46854 | 16.30128 | 6369 ft | 260 kts | 351° |
| 2026-05-06 19:35 | 48.48615 | 16.30441 | 6242 ft | 253 kts | 20° |
| 2026-05-06 19:35 | 48.49991 | 16.31944 | 6098 ft | 243 kts | 53° |
| 2026-05-06 19:35 | 48.50674 | 16.34220 | 6001 ft | 239 kts | 76° |
| 2026-05-06 19:35 | 48.51043 | 16.36670 | 5964 ft | 239 kts | 80° |
| 2026-05-06 19:36 | 48.51347 | 16.39147 | 5972 ft | 240 kts | 87° |
| 2026-05-06 19:36 | 48.51074 | 16.41556 | 5967 ft | 231 kts | 121° |
| 2026-05-06 19:36 | 48.50086 | 16.43390 | 5748 ft | 223 kts | 145° |
| 2026-05-06 19:36 | 48.48747 | 16.44418 | 5433 ft | 215 kts | 167° |
| 2026-05-06 19:37 | 48.47305 | 16.44906 | 5118 ft | 209 kts | 187° |
| 2026-05-06 19:37 | 48.45935 | 16.44380 | 4983 ft | 204 kts | 199° |
| 2026-05-06 19:37 | 48.44517 | 16.44199 | 4982 ft | 205 kts | 178° |
| 2026-05-06 19:37 | 48.43607 | 16.44423 | 5003 ft | 196 kts | 172° |
| 2026-05-06 19:38 | 48.41882 | 16.45088 | 4981 ft | 192 kts | 169° |
| 2026-05-06 19:38 | 48.40601 | 16.45629 | 4980 ft | 191 kts | 169° |
| 2026-05-06 19:38 | 48.39306 | 16.46181 | 4985 ft | 191 kts | 169° |
| 2026-05-06 19:38 | 48.38027 | 16.46728 | 4988 ft | 191 kts | 169° |
| 2026-05-06 19:39 | 48.36752 | 16.47274 | 4989 ft | 191 kts | 169° |
| 2026-05-06 19:39 | 48.35468 | 16.47822 | 4990 ft | 192 kts | 169° |
| 2026-05-06 19:39 | 48.34177 | 16.48374 | 4952 ft | 194 kts | 169° |
| 2026-05-06 19:39 | 48.32891 | 16.48924 | 4771 ft | 191 kts | 170° |
| 2026-05-06 19:40 | 48.31613 | 16.49470 | 4552 ft | 190 kts | 170° |
| 2026-05-06 19:40 | 48.30348 | 16.50009 | 4299 ft | 188 kts | 170° |
| 2026-05-06 19:40 | 48.29099 | 16.50542 | 4053 ft | 186 kts | 170° |
| 2026-05-06 19:40 | 48.27882 | 16.51061 | 3799 ft | 182 kts | 171° |
| 2026-05-06 19:41 | 48.26669 | 16.51579 | 3548 ft | 176 kts | 172° |
| 2026-05-06 19:41 | 48.25539 | 16.52062 | 3339 ft | 168 kts | 172° |
| 2026-05-06 19:41 | 48.24431 | 16.52532 | 3117 ft | 163 kts | 172° |
| 2026-05-06 19:41 | 48.23347 | 16.52993 | 2904 ft | 161 kts | 172° |
| 2026-05-06 19:42 | 48.22277 | 16.53447 | 2696 ft | 159 kts | 172° |
| 2026-05-06 19:42 | 48.21231 | 16.53892 | 2490 ft | 153 kts | 172° |
| 2026-05-06 19:42 | 48.20246 | 16.54313 | 2301 ft | 141 kts | 172° |
| 2026-05-06 19:42 | 48.19340 | 16.54699 | 2126 ft | 130 kts | 172° |
| 2026-05-06 19:43 | 48.18475 | 16.55064 | 1949 ft | 128 kts | 171° |
| 2026-05-06 19:43 | 48.17608 | 16.55430 | 1772 ft | 129 kts | 171° |
| 2026-05-06 19:43 | 48.16750 | 16.55794 | 1608 ft | 127 kts | 170° |
| 2026-05-06 19:43 | 48.15895 | 16.56156 | 1434 ft | 128 kts | 168° |
| 2026-05-06 19:44 | 48.15038 | 16.56519 | 1264 ft | 127 kts | 166° |
| 2026-05-06 19:44 | 48.14189 | 16.56879 | 1093 ft | 127 kts | 166° |
| 2026-05-06 19:44 | 48.13332 | 16.57242 | 931 ft | 127 kts | 165° |
| 2026-05-06 19:44 | 48.12484 | 16.57600 | 754 ft | 127 kts | 165° |
| 2026-05-06 19:45 | 48.11638 | 16.57954 | 631 ft | 126 kts | 163° |
| 2026-05-06 19:45 | 48.10893 | 16.58278 | 614 ft | 90 kts | 164° |
| 2026-05-06 19:45 | 48.10429 | 16.58474 | 609 ft | 56 kts | 163° |
| 2026-05-06 19:45 | 48.10126 | 16.58598 | 617 ft | 24 kts | 169° |
| 2026-05-06 19:46 | 48.09980 | 16.58617 | 614 ft | 21 kts | 180° |
| 2026-05-06 19:46 | 48.09833 | 16.58593 | 609 ft | 21 kts | 189° |
| 2026-05-06 19:46 | 48.09719 | 16.58565 | 609 ft | 17 kts | 190° |
| 2026-05-06 19:46 | 48.09636 | 16.58474 | 614 ft | 15 kts | 259° |
| 2026-05-06 19:47 | 48.09692 | 16.58367 | 619 ft | 15 kts | 341° |
| 2026-05-06 19:47 | 48.09797 | 16.58321 | 609 ft | 17 kts | 343° |
| 2026-05-06 19:47 | 48.09916 | 16.58271 | 611 ft | 19 kts | 344° |
| 2026-05-06 19:47 | 48.10044 | 16.58217 | 615 ft | 17 kts | 344° |
| 2026-05-06 19:48 | 48.10124 | 16.58183 | 619 ft | 12 kts | 344° |
| 2026-05-06 19:48 | 48.10212 | 16.58146 | 619 ft | 14 kts | 344° |
| 2026-05-06 19:48 | 48.10315 | 16.58103 | 617 ft | 16 kts | 344° |
| 2026-05-06 19:48 | 48.10430 | 16.58055 | 617 ft | 18 kts | 344° |
| 2026-05-06 19:49 | 48.10557 | 16.58001 | 618 ft | 20 kts | 344° |
| 2026-05-06 19:49 | 48.10637 | 16.57966 | 614 ft | 12 kts | 344° |
| 2026-05-06 19:49 | 48.10708 | 16.57936 | 615 ft | 12 kts | 344° |
| 2026-05-06 19:49 | 48.10795 | 16.57901 | 610 ft | 14 kts | 346° |
| 2026-05-06 19:50 | 48.10895 | 16.57859 | 619 ft | 16 kts | 343° |
| 2026-05-06 19:50 | 48.11007 | 16.57806 | 616 ft | 18 kts | 338° |
| 2026-05-06 19:50 | 48.11084 | 16.57656 | 621 ft | 19 kts | 295° |
| 2026-05-06 19:50 | 48.11146 | 16.57467 | 613 ft | 21 kts | 296° |
| 2026-05-06 19:51 | 48.11213 | 16.57259 | 610 ft | 23 kts | 295° |
| 2026-05-06 19:51 | 48.11286 | 16.57039 | 623 ft | 24 kts | 296° |
| 2026-05-06 19:51 | 48.11363 | 16.56801 | 614 ft | 26 kts | 295° |
| 2026-05-06 19:51 | 48.11442 | 16.56560 | 617 ft | 22 kts | 296° |
| 2026-05-06 19:52 | 48.11513 | 16.56341 | 610 ft | 24 kts | 296° |
| 2026-05-06 19:52 | 48.11589 | 16.56105 | 616 ft | 26 kts | 295° |
| 2026-05-06 19:52 | 48.11670 | 16.55856 | 613 ft | 28 kts | 296° |